createdAt,value
2022-08-03T00:00:30.694Z,39.25
2022-08-03T00:03:15.548Z,39.18
2022-08-03T00:06:03.858Z,39.82
2022-08-03T00:08:49.825Z,40.38
2022-08-03T00:11:34.631Z,39.98
2022-08-03T00:14:19.405Z,39.79
2022-08-03T00:17:04.187Z,37.84
2022-08-03T00:19:48.769Z,39.49
2022-08-03T00:22:33.595Z,37.57
2022-08-03T00:25:18.401Z,39.94
2022-08-03T00:28:03.148Z,37.84
2022-08-03T00:30:48.049Z,37.82
2022-08-03T00:33:58.761Z,38.13
2022-08-03T00:36:38.191Z,38.64
2022-08-03T00:39:23.089Z,39.08
2022-08-03T00:42:07.859Z,39.57
2022-08-03T00:44:52.771Z,40.43
2022-08-03T00:47:37.508Z,40.50
2022-08-03T00:50:22.305Z,40.50
2022-08-03T00:53:06.941Z,38.08
2022-08-03T00:55:51.885Z,38.39
2022-08-03T00:58:36.528Z,38.06
2022-08-03T01:01:21.404Z,39.96
2022-08-03T01:04:06.194Z,38.57
2022-08-03T01:06:50.875Z,38.39
2022-08-03T01:09:35.724Z,39.17
2022-08-03T01:12:20.546Z,38.90
2022-08-03T01:15:05.349Z,39.06
2022-08-03T01:17:50.092Z,38.77
2022-08-03T01:20:35.058Z,38.93
2022-08-03T01:23:19.773Z,39.16
2022-08-03T01:26:07.099Z,39.42
2022-08-03T01:28:51.906Z,40.41
2022-08-03T01:31:36.619Z,39.11
2022-08-03T01:34:41.492Z,39.02
2022-08-03T01:37:26.161Z,39.56
2022-08-03T01:40:11.380Z,40.09
2022-08-03T01:42:56.122Z,40.04
2022-08-03T01:45:40.786Z,39.21
2022-08-03T01:48:25.569Z,39.32
2022-08-03T01:51:10.272Z,40.46
2022-08-03T01:53:55.021Z,39.46
2022-08-03T01:56:39.719Z,39.44
2022-08-03T01:59:24.606Z,40.80
2022-08-03T02:02:28.106Z,39.28
2022-08-03T02:05:14.090Z,39.74
2022-08-03T02:07:58.892Z,39.68
2022-08-03T02:10:43.539Z,40.06
2022-08-03T02:13:28.423Z,40.24
2022-08-03T02:16:12.913Z,39.58
2022-08-03T02:18:57.813Z,39.73
2022-08-03T02:21:56.426Z,40.64
2022-08-03T02:24:45.877Z,40.03
2022-08-03T02:27:38.414Z,39.88
2022-08-03T02:30:26.444Z,42.05
2022-08-03T02:33:11.370Z,41.39
2022-08-03T02:35:56.129Z,41.76
2022-08-03T02:38:41.025Z,40.59
2022-08-03T02:41:25.739Z,39.08
2022-08-03T02:44:11.070Z,40.32
2022-08-03T02:46:55.872Z,38.88
2022-08-03T02:49:50.650Z,39.17
2022-08-03T02:52:36.630Z,40.49
2022-08-03T02:55:21.519Z,39.49
2022-08-03T02:58:06.167Z,39.97
2022-08-03T03:00:51.049Z,39.26
2022-08-03T03:03:43.957Z,39.58
2022-08-03T03:06:30.169Z,39.90
2022-08-03T03:09:15.160Z,40.23
2022-08-03T03:12:00.041Z,40.43
2022-08-03T03:14:44.791Z,40.25
2022-08-03T03:17:29.671Z,41.12
2022-08-03T03:20:14.367Z,41.25
2022-08-03T03:22:59.242Z,41.24
2022-08-03T03:25:44.003Z,41.80
2022-08-03T03:28:28.774Z,41.50
2022-08-03T03:31:13.541Z,41.81
2022-08-03T03:33:58.310Z,42.11
2022-08-03T03:36:43.049Z,41.70
2022-08-03T03:39:27.795Z,41.31
2022-08-03T03:42:12.687Z,41.03
2022-08-03T03:44:57.671Z,42.11
2022-08-03T03:47:44.548Z,42.08
2022-08-03T03:50:29.774Z,41.18
2022-08-03T03:53:14.584Z,41.68
2022-08-03T03:56:02.576Z,41.58
2022-08-03T03:58:48.043Z,41.69
2022-08-03T04:01:32.797Z,42.12
2022-08-03T04:04:17.552Z,42.38
2022-08-03T04:07:02.398Z,42.54
2022-08-03T04:09:47.192Z,43.34
2022-08-03T04:12:31.909Z,41.86
2022-08-03T04:15:16.800Z,42.44
2022-08-03T04:18:01.610Z,42.74
2022-08-03T04:20:46.565Z,42.43
2022-08-03T04:23:32.900Z,41.53
2022-08-03T04:26:17.660Z,41.53
2022-08-03T04:29:02.569Z,41.56
2022-08-03T04:31:47.422Z,42.51
2022-08-03T04:34:32.143Z,41.57
2022-08-03T04:37:16.859Z,41.90
2022-08-03T04:40:01.690Z,41.35
2022-08-03T04:42:46.933Z,41.53
2022-08-03T04:45:31.755Z,43.52
2022-08-03T04:48:16.476Z,41.28
2022-08-03T04:51:01.307Z,41.50
2022-08-03T04:53:46.099Z,41.86
2022-08-03T04:56:31.045Z,42.58
2022-08-03T04:59:15.798Z,42.97
2022-08-03T05:02:00.659Z,42.79
2022-08-03T05:04:45.459Z,43.18
2022-08-03T05:07:36.620Z,42.66
2022-08-03T05:10:21.863Z,42.48
2022-08-03T05:13:06.706Z,40.47
2022-08-03T05:15:51.438Z,40.25
2022-08-03T05:18:36.194Z,40.64
2022-08-03T05:21:20.807Z,40.16
2022-08-03T05:24:05.635Z,40.19
2022-08-03T05:26:50.374Z,40.25
2022-08-03T05:29:35.134Z,39.80
2022-08-03T05:32:20.008Z,39.66
2022-08-03T05:36:01.258Z,40.48
2022-08-03T05:38:10.074Z,35.54
2022-08-03T05:40:57.561Z,28.82
2022-08-03T05:44:00.131Z,25.12
2022-08-03T05:46:44.876Z,23.35
2022-08-03T05:49:29.639Z,22.71
2022-08-03T05:52:21.510Z,20.61
2022-08-03T05:55:06.692Z,19.92
2022-08-03T05:57:51.429Z,18.53
2022-08-03T06:00:40.086Z,16.99
2022-08-03T06:03:24.658Z,16.49
2022-08-03T06:06:09.505Z,15.78
2022-08-03T06:08:54.239Z,15.03
2022-08-03T06:11:39.008Z,13.85
2022-08-03T06:14:23.670Z,13.40
2022-08-03T06:17:08.444Z,13.78
2022-08-03T06:19:53.139Z,13.78
2022-08-03T06:22:49.097Z,13.93
2022-08-03T06:25:36.520Z,13.42
2022-08-03T06:28:52.376Z,12.78
2022-08-03T06:31:26.110Z,12.24
2022-08-03T06:34:32.439Z,12.97
2022-08-03T06:37:19.942Z,12.75
2022-08-03T06:40:04.761Z,13.04
2022-08-03T06:42:49.566Z,12.43
2022-08-03T06:45:35.432Z,12.51
2022-08-03T06:48:20.125Z,12.95
2022-08-03T06:51:04.935Z,12.99
2022-08-03T06:53:51.727Z,13.25
2022-08-03T06:56:36.460Z,13.10
2022-08-03T07:00:06.399Z,13.19
2022-08-03T07:02:28.235Z,12.13
2022-08-03T07:05:13.589Z,12.77
2022-08-03T07:07:58.387Z,12.59
2022-08-03T07:10:43.015Z,12.37
2022-08-03T07:13:27.834Z,11.70
2022-08-03T07:16:12.557Z,12.87
2022-08-03T07:18:57.384Z,12.30
2022-08-03T07:21:42.092Z,11.89
2022-08-03T07:24:26.861Z,11.83
2022-08-03T07:27:13.569Z,11.38
2022-08-03T07:29:58.361Z,10.68
2022-08-03T07:32:49.853Z,11.55
2022-08-03T07:35:35.529Z,12.56
2022-08-03T07:38:21.220Z,13.37
2022-08-03T07:41:06.570Z,15.06
2022-08-03T07:43:51.355Z,17.62
2022-08-03T07:46:36.071Z,19.83
2022-08-03T07:49:20.820Z,21.42
2022-08-03T07:52:05.541Z,22.25
2022-08-03T07:54:50.373Z,21.66
2022-08-03T07:57:35.053Z,23.52
2022-08-03T08:00:20.018Z,23.01
2022-08-03T08:03:05.056Z,25.58
2022-08-03T08:05:49.752Z,25.67
2022-08-03T08:08:34.421Z,27.04
2022-08-03T08:11:19.126Z,26.29
2022-08-03T08:14:04.028Z,26.70
2022-08-03T08:16:48.694Z,27.16
2022-08-03T08:19:33.402Z,26.74
2022-08-03T08:22:30.039Z,27.31
2022-08-03T08:25:16.052Z,27.66
2022-08-03T08:28:22.334Z,26.86
2022-08-03T08:31:09.038Z,27.64
2022-08-03T08:34:09.493Z,27.35
2022-08-03T08:36:54.420Z,28.56
2022-08-03T08:39:39.283Z,27.63
2022-08-03T08:42:24.032Z,27.84
2022-08-03T08:45:08.891Z,28.47
2022-08-03T08:47:58.116Z,29.62
2022-08-03T08:50:45.188Z,27.43
2022-08-03T08:53:29.910Z,28.56
2022-08-03T08:56:14.627Z,28.07
2022-08-03T08:58:59.276Z,28.86
2022-08-03T09:01:44.144Z,28.10
2022-08-03T09:04:29.495Z,27.31
2022-08-03T09:07:21.077Z,27.68
2022-08-03T09:10:11.352Z,27.67
2022-08-03T09:12:58.269Z,29.11
2022-08-03T09:15:43.078Z,28.74
2022-08-03T09:18:45.978Z,28.81
2022-08-03T09:21:32.603Z,28.71
2022-08-03T09:24:37.319Z,28.91
2022-08-03T09:27:23.179Z,28.44
2022-08-03T09:30:33.081Z,27.94
2022-08-03T09:33:12.849Z,28.65
2022-08-03T09:35:58.012Z,29.35
2022-08-03T09:38:43.239Z,28.77
2022-08-03T09:41:28.005Z,28.32
2022-08-03T09:44:24.581Z,29.06
2022-08-03T09:47:10.623Z,28.42
2022-08-03T09:49:55.271Z,28.06
2022-08-03T09:52:49.317Z,27.52
2022-08-03T09:56:36.494Z,28.17
2022-08-03T09:58:39.863Z,29.15
2022-08-03T10:01:25.489Z,28.67
2022-08-03T10:04:10.379Z,27.43
2022-08-03T10:06:55.212Z,26.97
2022-08-03T10:09:39.924Z,27.05
2022-08-03T10:12:24.840Z,27.48
2022-08-03T10:15:10.056Z,27.50
2022-08-03T10:18:14.917Z,27.45
2022-08-03T10:20:59.644Z,27.34
2022-08-03T10:23:44.412Z,24.86
2022-08-03T10:26:29.246Z,26.85
2022-08-03T10:29:14.061Z,27.13
2022-08-03T10:31:58.918Z,26.61
2022-08-03T10:34:44.794Z,26.05
2022-08-03T10:37:29.883Z,25.84
2022-08-03T10:40:27.942Z,25.94
2022-08-03T10:43:19.620Z,26.79
2022-08-03T10:46:04.448Z,25.80
2022-08-03T10:48:49.264Z,26.89
2022-08-03T10:51:33.907Z,27.17
2022-08-03T10:54:18.869Z,26.92
2022-08-03T10:57:14.144Z,26.02
2022-08-03T11:00:07.873Z,26.04
2022-08-03T11:02:52.721Z,25.66
2022-08-03T11:05:37.458Z,26.25
2022-08-03T11:08:22.326Z,25.98
2022-08-03T11:11:07.108Z,26.51
2022-08-03T11:13:51.974Z,26.83
2022-08-03T11:16:36.749Z,26.15
2022-08-03T11:19:21.496Z,26.59
2022-08-03T11:22:06.452Z,26.89
2022-08-03T11:24:51.232Z,26.37
2022-08-03T11:27:36.081Z,26.52
2022-08-03T11:30:20.716Z,26.47
2022-08-03T11:33:12.415Z,26.02
2022-08-03T11:35:57.228Z,26.59
2022-08-03T11:38:42.055Z,26.96
2022-08-03T11:41:26.976Z,26.51
2022-08-03T11:44:11.622Z,25.30
2022-08-03T11:46:57.022Z,25.59
2022-08-03T11:49:41.882Z,25.64
2022-08-03T11:52:28.769Z,26.41
2022-08-03T11:55:13.819Z,25.88
2022-08-03T11:59:01.746Z,25.28
2022-08-03T12:01:03.320Z,25.16
2022-08-03T12:03:48.073Z,25.38
2022-08-03T12:06:33.167Z,26.00
2022-08-03T12:09:17.890Z,24.65
2022-08-03T12:12:06.140Z,25.84
2022-08-03T12:14:52.509Z,25.88
2022-08-03T12:17:37.844Z,25.52
2022-08-03T12:20:34.400Z,25.51
2022-08-03T12:23:19.921Z,25.03
2022-08-03T12:26:04.632Z,24.88
2022-08-03T12:28:50.037Z,23.86
2022-08-03T12:31:34.977Z,24.34
2022-08-03T12:34:19.729Z,23.33
2022-08-03T12:37:04.674Z,23.24
2022-08-03T12:40:10.523Z,23.31
2022-08-03T12:42:55.733Z,23.05
2022-08-03T12:45:40.524Z,23.64
2022-08-03T12:48:25.409Z,22.50
2022-08-03T12:51:12.796Z,22.89
2022-08-03T12:53:57.527Z,23.31
2022-08-03T12:56:42.324Z,21.67
2022-08-03T12:59:32.444Z,23.29
2022-08-03T13:02:19.870Z,23.87
2022-08-03T13:05:08.457Z,21.71
2022-08-03T13:07:53.377Z,22.22
2022-08-03T13:10:40.516Z,23.63
2022-08-03T13:13:25.401Z,22.85
2022-08-03T13:16:10.328Z,23.30
2022-08-03T13:18:55.083Z,23.80
2022-08-03T13:22:01.385Z,22.94
2022-08-03T13:24:44.759Z,23.58
2022-08-03T13:28:03.619Z,21.84
2022-08-03T13:30:34.539Z,20.27
2022-08-03T13:33:19.482Z,22.10
2022-08-03T13:36:04.255Z,21.62
2022-08-03T13:38:49.084Z,18.95
2022-08-03T13:41:34.485Z,21.96
2022-08-03T13:44:29.721Z,19.48
2022-08-03T13:47:14.817Z,19.49
2022-08-03T13:50:02.490Z,20.42
2022-08-03T13:52:47.815Z,20.49
2022-08-03T13:55:32.667Z,20.07
2022-08-03T13:58:17.569Z,20.00
2022-08-03T14:01:03.868Z,20.36
2022-08-03T14:03:48.711Z,19.34
2022-08-03T14:06:33.482Z,21.36
2022-08-03T14:09:18.274Z,21.75
2022-08-03T14:12:07.830Z,20.31
2022-08-03T14:14:55.992Z,19.39
2022-08-03T14:17:50.051Z,19.53
2022-08-03T14:20:36.587Z,21.32
2022-08-03T14:23:22.632Z,21.89
2022-08-03T14:26:07.556Z,21.47
2022-08-03T14:28:52.421Z,21.78
2022-08-03T14:32:12.116Z,21.57
2022-08-03T14:34:41.888Z,21.44
2022-08-03T14:37:26.729Z,23.16
2022-08-03T14:40:11.531Z,20.75
2022-08-03T14:42:56.768Z,19.55
2022-08-03T14:45:41.597Z,19.37
2022-08-03T14:50:31.702Z,21.29
2022-08-03T14:51:31.841Z,19.80
2022-08-03T14:54:16.534Z,20.09
2022-08-03T14:57:03.316Z,19.91
2022-08-03T14:59:56.064Z,20.78
2022-08-03T15:02:42.151Z,19.19
2022-08-03T15:05:26.828Z,18.88
2022-08-03T15:08:11.715Z,19.38
2022-08-03T15:10:56.374Z,20.90
2022-08-03T15:13:41.125Z,20.69
2022-08-03T15:16:30.766Z,21.73
2022-08-03T15:20:01.077Z,20.95
2022-08-03T15:22:25.220Z,20.85
2022-08-03T15:26:29.209Z,21.43
2022-08-03T15:28:24.333Z,21.23
2022-08-03T15:31:09.042Z,21.63
2022-08-03T15:33:53.793Z,21.60
2022-08-03T15:36:38.625Z,22.55
2022-08-03T15:39:23.408Z,22.38
2022-08-03T15:42:08.426Z,23.09
2022-08-03T15:44:54.527Z,21.45
2022-08-03T15:47:39.502Z,21.19
2022-08-03T15:50:24.266Z,22.04
2022-08-03T15:53:08.983Z,22.56
2022-08-03T15:55:53.935Z,21.91
2022-08-03T15:59:09.356Z,23.19
2022-08-03T16:01:43.810Z,22.76
2022-08-03T16:04:28.988Z,22.24
2022-08-03T16:07:13.712Z,22.03
2022-08-03T16:09:58.494Z,22.51
2022-08-03T16:12:43.252Z,23.34
2022-08-03T16:15:27.913Z,22.70
2022-08-03T16:18:12.779Z,24.38
2022-08-03T16:20:57.345Z,23.01
2022-08-03T16:23:42.122Z,22.93
2022-08-03T16:26:31.960Z,23.39
2022-08-03T16:29:22.337Z,23.30
2022-08-03T16:32:09.560Z,23.95
2022-08-03T16:34:54.801Z,24.11
2022-08-03T16:37:39.661Z,24.89
2022-08-03T16:40:24.817Z,23.42
2022-08-03T16:43:09.535Z,25.81
2022-08-03T16:46:04.034Z,25.51
2022-08-03T16:48:48.735Z,24.61
2022-08-03T16:51:40.434Z,25.97
2022-08-03T16:54:35.427Z,24.86
2022-08-03T16:57:55.709Z,24.83
2022-08-03T17:00:34.002Z,25.06
2022-08-03T17:03:26.440Z,26.69
2022-08-03T17:06:12.194Z,27.14
2022-08-03T17:08:57.439Z,26.00
2022-08-03T17:11:46.705Z,25.88
2022-08-03T17:14:32.555Z,25.97
2022-08-03T17:17:17.494Z,26.18
2022-08-03T17:20:05.491Z,26.52
2022-08-03T17:22:52.624Z,26.55
2022-08-03T17:25:39.699Z,25.96
2022-08-03T17:28:50.617Z,26.84
2022-08-03T17:31:46.678Z,26.69
2022-08-03T17:34:34.177Z,26.65
2022-08-03T17:37:50.497Z,27.13
2022-08-03T17:40:24.250Z,27.08
2022-08-03T17:44:13.578Z,26.76
2022-08-03T17:46:15.625Z,26.65
2022-08-03T17:49:04.821Z,26.34
2022-08-03T17:52:10.062Z,26.52
2022-08-03T17:55:55.170Z,28.40
2022-08-03T17:58:07.341Z,27.81
2022-08-03T18:00:52.535Z,28.35
2022-08-03T18:03:58.725Z,28.36
2022-08-03T18:06:55.669Z,28.19
2022-08-03T18:10:06.317Z,29.11
2022-08-03T18:12:46.360Z,29.18
2022-08-03T18:15:37.182Z,29.02
2022-08-03T18:18:32.501Z,27.33
2022-08-03T18:21:17.814Z,27.59
2022-08-03T18:24:02.652Z,27.71
2022-08-03T18:26:47.882Z,27.29
2022-08-03T18:29:33.557Z,27.43
2022-08-03T18:32:19.515Z,28.74
2022-08-03T18:35:04.575Z,28.34
2022-08-03T18:37:51.823Z,29.54
2022-08-03T18:40:37.097Z,27.76
2022-08-03T18:43:47.278Z,27.95
2022-08-03T18:46:32.767Z,29.07
2022-08-03T18:49:18.996Z,30.20
2022-08-03T18:52:03.685Z,30.65
2022-08-03T18:55:02.320Z,29.81
2022-08-03T18:57:49.497Z,28.26
2022-08-03T19:00:54.071Z,30.91
2022-08-03T19:03:43.174Z,31.45
2022-08-03T19:06:28.571Z,31.50
2022-08-03T19:09:14.752Z,29.40
2022-08-03T19:12:12.431Z,29.10
2022-08-03T19:15:04.707Z,28.74
2022-08-03T19:17:52.944Z,30.21
2022-08-03T19:20:38.133Z,29.83
2022-08-03T19:23:22.871Z,29.16
2022-08-03T19:26:07.611Z,29.94
2022-08-03T19:29:15.344Z,30.91
2022-08-03T19:32:00.419Z,31.08
2022-08-03T19:34:46.613Z,30.66
2022-08-03T19:37:38.292Z,32.46
2022-08-03T19:40:24.788Z,33.00
2022-08-03T19:43:11.158Z,30.84
2022-08-03T19:46:04.916Z,29.80
2022-08-03T19:48:51.870Z,30.02
2022-08-03T19:52:03.013Z,33.14
2022-08-03T19:54:52.734Z,33.26
2022-08-03T19:57:39.192Z,32.85
2022-08-03T20:00:26.499Z,32.50
2022-08-03T20:03:19.705Z,32.62
2022-08-03T20:06:06.810Z,32.96
2022-08-03T20:08:52.134Z,32.73
2022-08-03T20:11:43.895Z,32.85
2022-08-03T20:14:30.437Z,32.96
2022-08-03T20:17:21.151Z,32.86
2022-08-03T20:20:06.410Z,30.86
2022-08-03T20:22:51.629Z,31.20
2022-08-03T20:25:37.947Z,32.17
2022-08-03T20:28:26.807Z,33.42
2022-08-03T20:31:11.790Z,31.32
2022-08-03T20:33:57.654Z,31.16
2022-08-03T20:36:42.359Z,31.59
2022-08-03T20:39:27.239Z,32.01
2022-08-03T20:42:12.577Z,31.64
2022-08-03T20:45:04.762Z,31.73
2022-08-03T20:47:51.635Z,32.31
2022-08-03T20:50:36.532Z,32.41
2022-08-03T20:53:56.787Z,32.09
2022-08-03T20:56:26.015Z,33.17
2022-08-03T20:59:15.034Z,32.65
2022-08-03T21:02:00.113Z,33.15
2022-08-03T21:04:44.955Z,33.57
2022-08-03T21:08:03.975Z,32.62
2022-08-03T21:10:37.943Z,32.53
2022-08-03T21:13:24.233Z,33.08
2022-08-03T21:16:14.154Z,33.00
2022-08-03T21:19:00.248Z,34.18
2022-08-03T21:21:44.954Z,34.36
2022-08-03T21:24:29.751Z,34.98
2022-08-03T21:27:14.494Z,34.51
2022-08-03T21:29:59.429Z,34.37
2022-08-03T21:32:44.207Z,35.56
2022-08-03T21:35:31.397Z,35.40
2022-08-03T21:38:16.221Z,33.78
2022-08-03T21:41:01.008Z,34.88
2022-08-03T21:43:45.876Z,35.88
2022-08-03T21:46:30.677Z,35.38
2022-08-03T21:50:04.303Z,32.49
2022-08-03T21:52:20.606Z,32.48
2022-08-03T21:55:05.338Z,32.56
2022-08-03T21:57:50.008Z,32.99
2022-08-03T22:00:34.788Z,33.22
2022-08-03T22:03:19.541Z,33.20
2022-08-03T22:06:05.771Z,33.69
2022-08-03T22:08:50.911Z,33.30
2022-08-03T22:11:35.802Z,33.35
2022-08-03T22:14:20.507Z,33.84
2022-08-03T22:17:07.141Z,33.10
2022-08-03T22:19:51.931Z,35.16
2022-08-03T22:22:36.955Z,33.36
2022-08-03T22:25:21.810Z,33.40
2022-08-03T22:28:06.481Z,33.39
2022-08-03T22:30:51.250Z,33.70
2022-08-03T22:33:35.858Z,33.43
2022-08-03T22:36:20.607Z,34.06
2022-08-03T22:39:05.399Z,33.75
2022-08-03T22:41:50.591Z,33.91
2022-08-03T22:44:35.256Z,34.46
2022-08-03T22:47:22.754Z,34.05
2022-08-03T22:50:31.926Z,36.15
2022-08-03T22:53:13.147Z,34.25
2022-08-03T22:55:57.825Z,33.94
2022-08-03T22:58:42.738Z,34.01
2022-08-03T23:01:27.433Z,34.39
2022-08-03T23:04:12.444Z,34.52
2022-08-03T23:06:57.406Z,34.62
2022-08-03T23:09:42.119Z,34.18
2022-08-03T23:12:26.816Z,34.68
2022-08-03T23:15:11.540Z,35.08
2022-08-03T23:17:57.395Z,34.67
2022-08-03T23:20:44.760Z,35.03
2022-08-03T23:23:44.005Z,34.88
2022-08-03T23:26:29.976Z,35.61
2022-08-03T23:29:15.509Z,34.84
2022-08-03T23:32:00.514Z,34.67
2022-08-03T23:34:45.330Z,35.03
2022-08-03T23:37:29.966Z,34.73
2022-08-03T23:40:14.592Z,34.70
2022-08-03T23:42:59.502Z,35.90
2022-08-03T23:45:44.173Z,35.01
2022-08-03T23:48:29.068Z,35.03
2022-08-03T23:51:13.840Z,35.49
2022-08-03T23:54:01.903Z,37.17
2022-08-03T23:56:47.279Z,37.28
2022-08-03T23:59:32.005Z,35.82
